Airfield :
LOGIN :

Register | Disclaimer

   EN    FR    IT 

 










Legend :    VFR   Marginal VFR   IFR   Intensive IFR   Very Intensive IFR
Visi :
Ceiling :
>= 8 km
>= 3000ft
5 to 8 km
1000 to 3000 ft
1500m to 5 km
500 to 1000 ft
800 to 1500m
200 to 500 ft
< 800m
< 200 ft
Symbols :   Thunderstorms  Fog  Heavy snow  Heavy precipitations  Wind > 20 kt
SIGMETs :     Misc.  Thunderstorms  Icing  Turbulence  Mountain Waves  Volcanic Ashes







- Airport Elevation : 464 ft
- IATA code : EVX
- Download approach charts


LFOE - Evreux

CURRENT METAR :
  • 191200Z AUTO 02006KT 320V060 CAVOK 23/07 Q1024 NOSIG

EXPIRED METARs :
  • 191130Z AUTO 04007KT 350V080 CAVOK 22/06 Q1025 NOSIG
  • 191100Z AUTO 05008KT 020V080 CAVOK 21/07 Q1025 NOSIG
  • 191030Z AUTO 04009KT 360V060 CAVOK 21/08 Q1025 NOSIG
  • 191000Z AUTO 02006KT 360V060 CAVOK 20/08 Q1025 NOSIG
  • 190930Z AUTO 02005KT 340V050 CAVOK 18/08 Q1025 NOSIG

TAF TAF LFOE
Valid from the 19 at 09:00 until the 20 at 09:00 UTC


190800Z 1909/2009 04008KT CAVOK
No reported NOTAMs for that airfield.



MET'MAP, your aeronautical weather chart ! - Copyright ORBIFLY December 2007 - Disclaimer

ORBIFLY MET'MAP TEAM :

Programming & Development : Alexandra Zaïnal
Concept & Development : Baudouin d'Aumeries
Co-Development & Prog : Marc-Olivier Méhu
Technical & hardware support : Manuel Goepfert

Contact : metmap@orbifly.com




SOURCES & CREDITS :

   NOAA